sensor_id;sensor_type;location;lat;lon;timestamp;pressure;altitude;pressure_sealevel;temperature;humidity
75895;BME280;64573;50.328;15.014;2022-10-31T00:00:17;99368.72;;;6.07;97.70
75895;BME280;64573;50.328;15.014;2022-10-31T00:02:42;99368.63;;;6.08;97.57
75895;BME280;64573;50.328;15.014;2022-10-31T00:05:08;99375.72;;;6.18;97.44
75895;BME280;64573;50.328;15.014;2022-10-31T00:07:33;99381.47;;;6.13;98.09
75895;BME280;64573;50.328;15.014;2022-10-31T00:09:59;99378.66;;;6.15;97.77
75895;BME280;64573;50.328;15.014;2022-10-31T00:12:24;99373.78;;;6.10;97.86
75895;BME280;64573;50.328;15.014;2022-10-31T00:14:49;99382.47;;;5.93;97.87
75895;BME280;64573;50.328;15.014;2022-10-31T00:17:15;99370.41;;;5.89;97.66
75895;BME280;64573;50.328;15.014;2022-10-31T00:22:09;99374.34;;;5.85;97.88
75895;BME280;64573;50.328;15.014;2022-10-31T00:24:34;99373.50;;;5.84;97.97
75895;BME280;64573;50.328;15.014;2022-10-31T00:26:59;99375.16;;;5.85;97.57
75895;BME280;64573;50.328;15.014;2022-10-31T00:29:25;99375.91;;;5.87;97.90
75895;BME280;64573;50.328;15.014;2022-10-31T00:31:51;99376.00;;;5.86;97.90
75895;BME280;64573;50.328;15.014;2022-10-31T00:34:17;99371.53;;;5.86;97.96
75895;BME280;64573;50.328;15.014;2022-10-31T00:36:42;99367.75;;;5.89;98.18
75895;BME280;64573;50.328;15.014;2022-10-31T00:41:36;99377.56;;;5.98;98.10
75895;BME280;64573;50.328;15.014;2022-10-31T00:44:02;99379.25;;;5.99;98.08
75895;BME280;64573;50.328;15.014;2022-10-31T00:46:27;99380.09;;;5.99;98.12
75895;BME280;64573;50.328;15.014;2022-10-31T00:48:52;99378.56;;;5.97;98.35
75895;BME280;64573;50.328;15.014;2022-10-31T00:51:18;99380.53;;;5.95;98.25
75895;BME280;64573;50.328;15.014;2022-10-31T00:53:43;99378.97;;;5.92;98.29
75895;BME280;64573;50.328;15.014;2022-10-31T00:56:09;99382.63;;;5.91;98.12
75895;BME280;64573;50.328;15.014;2022-10-31T00:58:34;99378.25;;;5.90;98.10
75895;BME280;64573;50.328;15.014;2022-10-31T01:01:00;99378.97;;;5.92;97.93
75895;BME280;64573;50.328;15.014;2022-10-31T01:03:28;99389.88;;;5.89;98.02
75895;BME280;64573;50.328;15.014;2022-10-31T01:08:24;99385.28;;;5.81;98.23
75895;BME280;64573;50.328;15.014;2022-10-31T01:13:36;99373.06;;;5.79;98.06
75895;BME280;64573;50.328;15.014;2022-10-31T01:16:04;99371.97;;;5.81;98.29
75895;BME280;64573;50.328;15.014;2022-10-31T01:18:29;99369.00;;;5.85;98.15
75895;BME280;64573;50.328;15.014;2022-10-31T01:21:09;99367.34;;;5.84;98.34
75895;BME280;64573;50.328;15.014;2022-10-31T01:23:36;99362.16;;;5.82;98.40
75895;BME280;64573;50.328;15.014;2022-10-31T01:26:07;99358.38;;;5.75;98.13
75895;BME280;64573;50.328;15.014;2022-10-31T01:28:35;99362.59;;;5.68;98.31
75895;BME280;64573;50.328;15.014;2022-10-31T01:33:26;99367.63;;;5.61;98.21
75895;BME280;64573;50.328;15.014;2022-10-31T01:35:51;99365.94;;;5.60;98.15
75895;BME280;64573;50.328;15.014;2022-10-31T01:38:16;99364.84;;;5.53;98.35
75895;BME280;64573;50.328;15.014;2022-10-31T01:40:42;99362.31;;;5.51;98.26
75895;BME280;64573;50.328;15.014;2022-10-31T01:43:12;99366.06;;;5.49;98.25
75895;BME280;64573;50.328;15.014;2022-10-31T01:45:38;99363.28;;;5.41;98.18
75895;BME280;64573;50.328;15.014;2022-10-31T01:48:03;99360.19;;;5.36;98.32
75895;BME280;64573;50.328;15.014;2022-10-31T01:50:34;99363.53;;;5.28;98.14
75895;BME280;64573;50.328;15.014;2022-10-31T01:53:01;99358.78;;;5.22;98.19
75895;BME280;64573;50.328;15.014;2022-10-31T01:55:30;99362.13;;;5.14;98.43
75895;BME280;64573;50.328;15.014;2022-10-31T01:58:07;99359.88;;;5.10;98.45
75895;BME280;64573;50.328;15.014;2022-10-31T02:00:34;99365.06;;;5.11;98.48
75895;BME280;64573;50.328;15.014;2022-10-31T02:02:59;99369.44;;;5.22;98.34
75895;BME280;64573;50.328;15.014;2022-10-31T02:05:28;99374.91;;;5.30;98.49
75895;BME280;64573;50.328;15.014;2022-10-31T02:08:01;99369.97;;;5.35;98.21
75895;BME280;64573;50.328;15.014;2022-10-31T02:10:30;99362.59;;;5.39;98.34
75895;BME280;64573;50.328;15.014;2022-10-31T02:12:58;99367.50;;;5.43;98.38
75895;BME280;64573;50.328;15.014;2022-10-31T02:18:00;99364.69;;;5.45;98.33
75895;BME280;64573;50.328;15.014;2022-10-31T02:20:32;99367.75;;;5.50;98.44
75895;BME280;64573;50.328;15.014;2022-10-31T02:33:30;99376.31;;;5.63;98.59
75895;BME280;64573;50.328;15.014;2022-10-31T02:36:08;99387.22;;;5.70;98.73
75895;BME280;64573;50.328;15.014;2022-10-31T02:38:38;99380.50;;;5.75;98.33
75895;BME280;64573;50.328;15.014;2022-10-31T02:41:34;99387.63;;;5.85;98.64
75895;BME280;64573;50.328;15.014;2022-10-31T02:44:09;99382.75;;;5.90;98.42
75895;BME280;64573;50.328;15.014;2022-10-31T02:49:15;99393.56;;;5.98;98.63
75895;BME280;64573;50.328;15.014;2022-10-31T02:51:43;99388.66;;;6.03;98.69
75895;BME280;64573;50.328;15.014;2022-10-31T02:54:19;99387.66;;;6.04;98.98
75895;BME280;64573;50.328;15.014;2022-10-31T02:56:48;99383.19;;;6.04;98.40
75895;BME280;64573;50.328;15.014;2022-10-31T02:59:14;99388.94;;;6.10;98.53
75895;BME280;64573;50.328;15.014;2022-10-31T03:07:28;99384.72;;;6.17;98.74
75895;BME280;64573;50.328;15.014;2022-10-31T03:10:20;99390.03;;;6.17;98.78
75895;BME280;64573;50.328;15.014;2022-10-31T03:18:04;99386.50;;;6.26;98.67
75895;BME280;64573;50.328;15.014;2022-10-31T03:20:55;99382.56;;;6.30;99.01
75895;BME280;64573;50.328;15.014;2022-10-31T03:23:24;99389.97;;;6.36;98.77
75895;BME280;64573;50.328;15.014;2022-10-31T03:25:52;99390.81;;;6.36;98.39
75895;BME280;64573;50.328;15.014;2022-10-31T03:28:26;99395.28;;;6.36;98.70
75895;BME280;64573;50.328;15.014;2022-10-31T03:30:53;99392.38;;;6.39;98.43
75895;BME280;64573;50.328;15.014;2022-10-31T03:33:24;99402.56;;;6.44;98.65
75895;BME280;64573;50.328;15.014;2022-10-31T03:43:10;99391.22;;;6.42;99.11
75895;BME280;64573;50.328;15.014;2022-10-31T03:45:43;99390.38;;;6.41;98.92
75895;BME280;64573;50.328;15.014;2022-10-31T03:48:09;99400.63;;;6.46;99.20
75895;BME280;64573;50.328;15.014;2022-10-31T03:53:14;99396.81;;;6.48;98.83
75895;BME280;64573;50.328;15.014;2022-10-31T03:55:49;99395.97;;;6.48;98.90
75895;BME280;64573;50.328;15.014;2022-10-31T03:58:23;99401.31;;;6.48;99.17
75895;BME280;64573;50.328;15.014;2022-10-31T04:00:51;99398.66;;;6.48;98.99
75895;BME280;64573;50.328;15.014;2022-10-31T04:03:25;99400.16;;;6.50;98.99
75895;BME280;64573;50.328;15.014;2022-10-31T04:05:53;99400.63;;;6.46;99.30
75895;BME280;64573;50.328;15.014;2022-10-31T04:08:24;99404.13;;;6.36;99.01
75895;BME280;64573;50.328;15.014;2022-10-31T04:10:52;99406.09;;;6.34;99.08
75895;BME280;64573;50.328;15.014;2022-10-31T04:13:24;99410.59;;;6.34;99.08
75895;BME280;64573;50.328;15.014;2022-10-31T04:18:23;99403.16;;;6.38;98.79
75895;BME280;64573;50.328;15.014;2022-10-31T04:23:23;99409.47;;;6.27;99.82
75895;BME280;64573;50.328;15.014;2022-10-31T04:25:49;99409.38;;;6.19;99.46
75895;BME280;64573;50.328;15.014;2022-10-31T04:28:14;99408.41;;;6.10;99.38
75895;BME280;64573;50.328;15.014;2022-10-31T04:33:15;99435.44;;;6.05;99.26
75895;BME280;64573;50.328;15.014;2022-10-31T04:35:40;99422.13;;;6.05;99.26
75895;BME280;64573;50.328;15.014;2022-10-31T04:45:49;99428.88;;;6.10;99.85
75895;BME280;64573;50.328;15.014;2022-10-31T04:48:14;99417.22;;;6.11;100.00
75895;BME280;64573;50.328;15.014;2022-10-31T04:55:35;99422.09;;;6.15;100.00
75895;BME280;64573;50.328;15.014;2022-10-31T04:58:00;99429.13;;;6.16;100.00
75895;BME280;64573;50.328;15.014;2022-10-31T05:00:26;99424.34;;;6.20;99.96
75895;BME280;64573;50.328;15.014;2022-10-31T05:02:53;99419.88;;;6.20;99.90
75895;BME280;64573;50.328;15.014;2022-10-31T05:05:21;99424.78;;;6.25;100.00
75895;BME280;64573;50.328;15.014;2022-10-31T05:07:48;99423.78;;;6.26;100.00
75895;BME280;64573;50.328;15.014;2022-10-31T05:10:19;99427.00;;;6.29;100.00
75895;BME280;64573;50.328;15.014;2022-10-31T05:12:50;99425.88;;;6.32;100.00
75895;BME280;64573;50.328;15.014;2022-10-31T05:15:17;99423.75;;;6.35;100.00
75895;BME280;64573;50.328;15.014;2022-10-31T05:17:43;99433.31;;;6.38;100.00
75895;BME280;64573;50.328;15.014;2022-10-31T05:20:09;99429.50;;;6.41;100.00
75895;BME280;64573;50.328;15.014;2022-10-31T05:22:35;99427.53;;;6.43;100.00
75895;BME280;64573;50.328;15.014;2022-10-31T05:25:00;99422.94;;;6.45;100.00
75895;BME280;64573;50.328;15.014;2022-10-31T05:27:26;99428.09;;;6.46;100.00
75895;BME280;64573;50.328;15.014;2022-10-31T05:29:51;99430.47;;;6.49;100.00
75895;BME280;64573;50.328;15.014;2022-10-31T05:32:19;99435.25;;;6.46;100.00
75895;BME280;64573;50.328;15.014;2022-10-31T05:34:44;99433.97;;;6.50;100.00
75895;BME280;64573;50.328;15.014;2022-10-31T05:37:10;99440.00;;;6.52;100.00
75895;BME280;64573;50.328;15.014;2022-10-31T05:39:35;99439.72;;;6.55;99.74
75895;BME280;64573;50.328;15.014;2022-10-31T05:42:00;99441.97;;;6.59;100.00
75895;BME280;64573;50.328;15.014;2022-10-31T05:44:26;99439.13;;;6.61;100.00
75895;BME280;64573;50.328;15.014;2022-10-31T05:46:51;99439.69;;;6.64;99.97
75895;BME280;64573;50.328;15.014;2022-10-31T05:49:17;99455.97;;;6.61;99.94
75895;BME280;64573;50.328;15.014;2022-10-31T05:51:42;99449.34;;;6.66;100.00
75895;BME280;64573;50.328;15.014;2022-10-31T05:54:08;99450.06;;;6.68;100.00
75895;BME280;64573;50.328;15.014;2022-10-31T05:56:33;99441.91;;;6.69;100.00
75895;BME280;64573;50.328;15.014;2022-10-31T05:58:58;99449.75;;;6.71;100.00
75895;BME280;64573;50.328;15.014;2022-10-31T06:01:24;99456.78;;;6.72;100.00
75895;BME280;64573;50.328;15.014;2022-10-31T06:03:49;99449.34;;;6.75;100.00
75895;BME280;64573;50.328;15.014;2022-10-31T06:06:14;99446.38;;;6.78;100.00
75895;BME280;64573;50.328;15.014;2022-10-31T06:08:40;99454.09;;;6.81;100.00
75895;BME280;64573;50.328;15.014;2022-10-31T06:11:05;99453.78;;;6.84;100.00
75895;BME280;64573;50.328;15.014;2022-10-31T06:13:30;99454.19;;;6.89;100.00
75895;BME280;64573;50.328;15.014;2022-10-31T06:15:56;99450.38;;;6.92;100.00
75895;BME280;64573;50.328;15.014;2022-10-31T06:18:21;99455.56;;;6.94;100.00
75895;BME280;64573;50.328;15.014;2022-10-31T06:20:46;99455.56;;;6.94;99.99
75895;BME280;64573;50.328;15.014;2022-10-31T06:25:40;99457.81;;;6.98;100.00
75895;BME280;64573;50.328;15.014;2022-10-31T06:28:06;99465.41;;;6.93;100.00
75895;BME280;64573;50.328;15.014;2022-10-31T06:30:31;99468.75;;;6.95;100.00
75895;BME280;64573;50.328;15.014;2022-10-31T06:33:06;99471.16;;;6.98;100.00
75895;BME280;64573;50.328;15.014;2022-10-31T06:35:31;99471.00;;;7.00;100.00
75895;BME280;64573;50.328;15.014;2022-10-31T06:37:57;99472.09;;;7.07;100.00
75895;BME280;64573;50.328;15.014;2022-10-31T06:40:22;99474.22;;;7.03;100.00
75895;BME280;64573;50.328;15.014;2022-10-31T06:45:13;99487.69;;;7.02;100.00
75895;BME280;64573;50.328;15.014;2022-10-31T06:47:38;99484.16;;;7.11;100.00
75895;BME280;64573;50.328;15.014;2022-10-31T06:50:04;99480.91;;;7.17;100.00
75895;BME280;64573;50.328;15.014;2022-10-31T06:52:30;99489.03;;;7.15;100.00
75895;BME280;64573;50.328;15.014;2022-10-31T06:54:55;99485.38;;;7.16;100.00
75895;BME280;64573;50.328;15.014;2022-10-31T06:57:21;99489.75;;;7.17;100.00
75895;BME280;64573;50.328;15.014;2022-10-31T06:59:49;99492.25;;;7.19;100.00
75895;BME280;64573;50.328;15.014;2022-10-31T07:02:15;99487.56;;;7.31;100.00
75895;BME280;64573;50.328;15.014;2022-10-31T07:04:40;99490.09;;;7.32;100.00
75895;BME280;64573;50.328;15.014;2022-10-31T07:07:05;99500.56;;;7.43;100.00
75895;BME280;64573;50.328;15.014;2022-10-31T07:09:30;99494.78;;;7.48;100.00
75895;BME280;64573;50.328;15.014;2022-10-31T07:11:56;99497.22;;;7.59;100.00
75895;BME280;64573;50.328;15.014;2022-10-31T07:14:21;99501.44;;;7.62;100.00
75895;BME280;64573;50.328;15.014;2022-10-31T07:16:50;99500.28;;;7.46;100.00
75895;BME280;64573;50.328;15.014;2022-10-31T07:19:16;99505.13;;;7.61;100.00
75895;BME280;64573;50.328;15.014;2022-10-31T07:21:42;99504.06;;;7.71;100.00
75895;BME280;64573;50.328;15.014;2022-10-31T07:24:07;99510.66;;;7.67;100.00
75895;BME280;64573;50.328;15.014;2022-10-31T07:26:32;99495.78;;;7.47;100.00
75895;BME280;64573;50.328;15.014;2022-10-31T07:28:58;99509.97;;;7.65;100.00
75895;BME280;64573;50.328;15.014;2022-10-31T07:31:24;99499.88;;;7.69;100.00
75895;BME280;64573;50.328;15.014;2022-10-31T07:33:49;99500.91;;;7.58;100.00
75895;BME280;64573;50.328;15.014;2022-10-31T07:36:15;99498.19;;;7.68;100.00
75895;BME280;64573;50.328;15.014;2022-10-31T07:38:41;99501.88;;;7.57;100.00
75895;BME280;64573;50.328;15.014;2022-10-31T07:41:06;99499.78;;;7.79;100.00
75895;BME280;64573;50.328;15.014;2022-10-31T07:43:31;99500.56;;;7.89;100.00
75895;BME280;64573;50.328;15.014;2022-10-31T07:48:22;99500.19;;;8.01;100.00
75895;BME280;64573;50.328;15.014;2022-10-31T07:50:48;99506.38;;;8.02;100.00
75895;BME280;64573;50.328;15.014;2022-10-31T07:53:14;99512.78;;;8.09;100.00
75895;BME280;64573;50.328;15.014;2022-10-31T07:55:40;99516.75;;;8.05;100.00
75895;BME280;64573;50.328;15.014;2022-10-31T07:58:10;99517.28;;;8.09;100.00
75895;BME280;64573;50.328;15.014;2022-10-31T08:00:37;99526.13;;;8.09;100.00
75895;BME280;64573;50.328;15.014;2022-10-31T08:03:19;99521.78;;;8.08;100.00
75895;BME280;64573;50.328;15.014;2022-10-31T08:05:44;99521.13;;;8.06;100.00
75895;BME280;64573;50.328;15.014;2022-10-31T08:08:11;99523.09;;;8.04;100.00
75895;BME280;64573;50.328;15.014;2022-10-31T08:10:37;99525.63;;;8.06;100.00
75895;BME280;64573;50.328;15.014;2022-10-31T08:13:08;99514.44;;;8.10;100.00
75895;BME280;64573;50.328;15.014;2022-10-31T08:15:34;99515.75;;;8.24;100.00
75895;BME280;64573;50.328;15.014;2022-10-31T08:18:03;99521.16;;;8.32;100.00
75895;BME280;64573;50.328;15.014;2022-10-31T08:20:28;99522.66;;;8.26;100.00
75895;BME280;64573;50.328;15.014;2022-10-31T08:23:01;99523.47;;;8.09;100.00
75895;BME280;64573;50.328;15.014;2022-10-31T08:25:28;99516.06;;;8.21;100.00
75895;BME280;64573;50.328;15.014;2022-10-31T08:27:55;99510.13;;;8.45;100.00
75895;BME280;64573;50.328;15.014;2022-10-31T08:30:22;99515.31;;;8.64;100.00
75895;BME280;64573;50.328;15.014;2022-10-31T08:33:00;99513.75;;;8.79;100.00
75895;BME280;64573;50.328;15.014;2022-10-31T08:35:26;99501.94;;;8.64;100.00
75895;BME280;64573;50.328;15.014;2022-10-31T08:37:53;99512.22;;;8.77;100.00
75895;BME280;64573;50.328;15.014;2022-10-31T08:40:19;99514.25;;;8.83;100.00
75895;BME280;64573;50.328;15.014;2022-10-31T08:42:44;99513.59;;;9.07;100.00
75895;BME280;64573;50.328;15.014;2022-10-31T08:45:10;99517.78;;;9.09;100.00
75895;BME280;64573;50.328;15.014;2022-10-31T08:47:38;99506.28;;;8.65;100.00
75895;BME280;64573;50.328;15.014;2022-10-31T08:50:04;99505.09;;;8.86;100.00
75895;BME280;64573;50.328;15.014;2022-10-31T08:52:29;99521.56;;;8.99;100.00
75895;BME280;64573;50.328;15.014;2022-10-31T08:54:55;99518.84;;;9.25;100.00
75895;BME280;64573;50.328;15.014;2022-10-31T08:57:20;99515.38;;;9.32;100.00
75895;BME280;64573;50.328;15.014;2022-10-31T08:59:45;99516.09;;;9.43;100.00
75895;BME280;64573;50.328;15.014;2022-10-31T09:02:11;99514.28;;;9.43;100.00
75895;BME280;64573;50.328;15.014;2022-10-31T09:04:36;99517.13;;;9.16;100.00
75895;BME280;64573;50.328;15.014;2022-10-31T09:07:01;99515.13;;;9.18;100.00
75895;BME280;64573;50.328;15.014;2022-10-31T09:09:27;99516.75;;;9.36;100.00
75895;BME280;64573;50.328;15.014;2022-10-31T09:11:53;99519.06;;;9.31;100.00
75895;BME280;64573;50.328;15.014;2022-10-31T09:14:18;99511.75;;;9.42;100.00
75895;BME280;64573;50.328;15.014;2022-10-31T09:16:43;99514.44;;;9.42;100.00
75895;BME280;64573;50.328;15.014;2022-10-31T09:19:09;99510.53;;;9.28;100.00
75895;BME280;64573;50.328;15.014;2022-10-31T09:21:34;99512.13;;;9.55;100.00
75895;BME280;64573;50.328;15.014;2022-10-31T09:26:24;99512.66;;;9.24;100.00
75895;BME280;64573;50.328;15.014;2022-10-31T09:28:50;99515.84;;;8.94;100.00
75895;BME280;64573;50.328;15.014;2022-10-31T09:31:15;99504.19;;;8.77;100.00
75895;BME280;64573;50.328;15.014;2022-10-31T09:33:41;99520.22;;;9.29;100.00
75895;BME280;64573;50.328;15.014;2022-10-31T09:36:07;99519.31;;;9.54;100.00
75895;BME280;64573;50.328;15.014;2022-10-31T09:38:32;99523.88;;;9.70;100.00
75895;BME280;64573;50.328;15.014;2022-10-31T09:41:22;99514.53;;;9.32;100.00
75895;BME280;64573;50.328;15.014;2022-10-31T09:44:07;99524.47;;;9.48;100.00
75895;BME280;64573;50.328;15.014;2022-10-31T09:55:19;99516.56;;;9.72;100.00
75895;BME280;64573;50.328;15.014;2022-10-31T09:57:47;99516.00;;;9.60;100.00
75895;BME280;64573;50.328;15.014;2022-10-31T10:00:19;99518.41;;;9.37;100.00
75895;BME280;64573;50.328;15.014;2022-10-31T10:05:21;99519.75;;;9.84;100.00
75895;BME280;64573;50.328;15.014;2022-10-31T10:10:50;99519.75;;;9.84;100.00
75895;BME280;64573;50.328;15.014;2022-10-31T10:13:32;99518.28;;;9.98;100.00
75895;BME280;64573;50.328;15.014;2022-10-31T10:28:50;99499.72;;;10.20;98.87
75895;BME280;64573;50.328;15.014;2022-10-31T10:31:21;99493.69;;;10.10;97.87
75895;BME280;64573;50.328;15.014;2022-10-31T10:41:18;99501.78;;;10.59;98.06
75895;BME280;64573;50.328;15.014;2022-10-31T10:43:44;99500.28;;;10.73;97.84
75895;BME280;64573;50.328;15.014;2022-10-31T10:49:28;99493.72;;;10.75;97.31
75895;BME280;64573;50.328;15.014;2022-10-31T10:51:59;99488.00;;;10.87;97.29
75895;BME280;64573;50.328;15.014;2022-10-31T10:59:31;99483.88;;;11.15;96.65
75895;BME280;64573;50.328;15.014;2022-10-31T11:01:58;99485.44;;;11.10;96.43
75895;BME280;64573;50.328;15.014;2022-10-31T11:04:33;99492.72;;;10.60;95.53
75895;BME280;64573;50.328;15.014;2022-10-31T11:09:25;99488.69;;;10.64;96.40
75895;BME280;64573;50.328;15.014;2022-10-31T11:11:51;99496.44;;;10.43;95.08
75895;BME280;64573;50.328;15.014;2022-10-31T11:14:17;99480.97;;;10.69;96.13
75895;BME280;64573;50.328;15.014;2022-10-31T11:16:45;99482.78;;;11.01;96.45
75895;BME280;64573;50.328;15.014;2022-10-31T11:19:23;99477.84;;;11.21;96.17
75895;BME280;64573;50.328;15.014;2022-10-31T11:21:49;99477.28;;;10.70;95.46
75895;BME280;64573;50.328;15.014;2022-10-31T11:46:09;99449.31;;;10.73;95.15
75895;BME280;64573;50.328;15.014;2022-10-31T11:48:35;99448.75;;;10.94;95.07
75895;BME280;64573;50.328;15.014;2022-10-31T11:51:02;99458.28;;;11.04;95.54
75895;BME280;64573;50.328;15.014;2022-10-31T11:53:30;99458.97;;;10.90;94.54
75895;BME280;64573;50.328;15.014;2022-10-31T11:58:26;99455.66;;;10.80;94.76
75895;BME280;64573;50.328;15.014;2022-10-31T12:00:54;99457.50;;;10.63;94.70
75895;BME280;64573;50.328;15.014;2022-10-31T12:08:39;99431.41;;;11.13;95.18
75895;BME280;64573;50.328;15.014;2022-10-31T12:59:43;99380.38;;;11.52;91.01
75895;BME280;64573;50.328;15.014;2022-10-31T13:02:22;99383.91;;;11.44;91.10
75895;BME280;64573;50.328;15.014;2022-10-31T13:09:56;99386.34;;;10.92;93.17
75895;BME280;64573;50.328;15.014;2022-10-31T13:20:00;99380.66;;;11.26;92.93
75895;BME280;64573;50.328;15.014;2022-10-31T13:22:31;99383.31;;;11.03;93.50
75895;BME280;64573;50.328;15.014;2022-10-31T13:25:11;99377.06;;;11.11;93.25
75895;BME280;64573;50.328;15.014;2022-10-31T13:35:21;99371.19;;;11.07;93.73
75895;BME280;64573;50.328;15.014;2022-10-31T13:40:28;99373.34;;;10.72;94.13
75895;BME280;64573;50.328;15.014;2022-10-31T13:43:10;99371.66;;;10.71;94.94
75895;BME280;64573;50.328;15.014;2022-10-31T13:45:47;99369.78;;;10.88;94.90
75895;BME280;64573;50.328;15.014;2022-10-31T13:50:39;99358.13;;;10.57;95.48
75895;BME280;64573;50.328;15.014;2022-10-31T13:58:03;99358.09;;;10.73;95.99
75895;BME280;64573;50.328;15.014;2022-10-31T14:03:04;99345.78;;;10.95;95.65
75895;BME280;64573;50.328;15.014;2022-10-31T14:05:35;99340.44;;;10.87;95.08
75895;BME280;64573;50.328;15.014;2022-10-31T14:08:05;99353.28;;;10.99;95.40
75895;BME280;64573;50.328;15.014;2022-10-31T14:16:01;99345.09;;;10.93;96.11
75895;BME280;64573;50.328;15.014;2022-10-31T14:18:38;99342.22;;;11.02;95.60
75895;BME280;64573;50.328;15.014;2022-10-31T14:23:40;99331.66;;;10.93;95.96
75895;BME280;64573;50.328;15.014;2022-10-31T14:26:21;99325.19;;;10.79;96.18
75895;BME280;64573;50.328;15.014;2022-10-31T14:29:20;99334.06;;;10.88;95.99
75895;BME280;64573;50.328;15.014;2022-10-31T14:31:52;99337.41;;;10.90;96.43
75895;BME280;64573;50.328;15.014;2022-10-31T14:34:35;99333.88;;;10.89;96.67
75895;BME280;64573;50.328;15.014;2022-10-31T14:37:38;99326.56;;;10.75;97.21
75895;BME280;64573;50.328;15.014;2022-10-31T14:50:51;99318.25;;;11.01;96.29
75895;BME280;64573;50.328;15.014;2022-10-31T14:53:25;99313.38;;;10.96;96.44
75895;BME280;64573;50.328;15.014;2022-10-31T14:55:53;99318.00;;;10.71;97.26
75895;BME280;64573;50.328;15.014;2022-10-31T14:58:23;99304.34;;;10.58;97.30
75895;BME280;64573;50.328;15.014;2022-10-31T15:00:56;99296.97;;;10.52;97.83
75895;BME280;64573;50.328;15.014;2022-10-31T15:03:30;99299.50;;;10.45;97.80
75895;BME280;64573;50.328;15.014;2022-10-31T15:10:57;99294.66;;;10.41;98.38
75895;BME280;64573;50.328;15.014;2022-10-31T15:13:22;99293.97;;;10.47;98.76
75895;BME280;64573;50.328;15.014;2022-10-31T15:15:49;99289.41;;;10.56;98.50
75895;BME280;64573;50.328;15.014;2022-10-31T15:18:19;99296.28;;;10.58;98.40
75895;BME280;64573;50.328;15.014;2022-10-31T15:20:45;99295.59;;;10.56;98.61
75895;BME280;64573;50.328;15.014;2022-10-31T15:23:20;99291.25;;;10.55;98.39
75895;BME280;64573;50.328;15.014;2022-10-31T15:25:46;99292.78;;;10.49;98.49
75895;BME280;64573;50.328;15.014;2022-10-31T15:28:25;99278.97;;;10.30;98.56
75895;BME280;64573;50.328;15.014;2022-10-31T15:30:57;99277.75;;;10.32;98.57
75895;BME280;64573;50.328;15.014;2022-10-31T15:33:28;99279.78;;;10.22;98.70
75895;BME280;64573;50.328;15.014;2022-10-31T15:35:55;99290.66;;;10.20;98.74
75895;BME280;64573;50.328;15.014;2022-10-31T15:38:21;99281.47;;;9.99;98.93
75895;BME280;64573;50.328;15.014;2022-10-31T15:40:56;99277.13;;;9.98;99.01
75895;BME280;64573;50.328;15.014;2022-10-31T15:43:22;99279.00;;;9.89;99.09
75895;BME280;64573;50.328;15.014;2022-10-31T15:45:48;99273.66;;;9.81;99.26
75895;BME280;64573;50.328;15.014;2022-10-31T15:48:18;99279.88;;;9.65;99.69
75895;BME280;64573;50.328;15.014;2022-10-31T15:50:55;99271.00;;;9.56;99.50
75895;BME280;64573;50.328;15.014;2022-10-31T15:53:28;99270.47;;;9.53;99.65
75895;BME280;64573;50.328;15.014;2022-10-31T15:56:00;99270.00;;;9.57;100.00
75895;BME280;64573;50.328;15.014;2022-10-31T15:58:26;99272.66;;;9.57;100.00
75895;BME280;64573;50.328;15.014;2022-10-31T16:01:02;99273.00;;;9.54;100.00
75895;BME280;64573;50.328;15.014;2022-10-31T16:03:32;99269.31;;;9.47;100.00
75895;BME280;64573;50.328;15.014;2022-10-31T16:13:25;99272.47;;;9.26;100.00
75895;BME280;64573;50.328;15.014;2022-10-31T16:15:56;99278.34;;;9.22;100.00
75895;BME280;64573;50.328;15.014;2022-10-31T16:18:24;99271.78;;;9.16;100.00
75895;BME280;64573;50.328;15.014;2022-10-31T16:20:51;99276.97;;;9.09;100.00
75895;BME280;64573;50.328;15.014;2022-10-31T16:23:19;99275.13;;;9.10;100.00
75895;BME280;64573;50.328;15.014;2022-10-31T16:25:48;99280.47;;;9.10;100.00
75895;BME280;64573;50.328;15.014;2022-10-31T16:28:22;99275.97;;;9.10;100.00
75895;BME280;64573;50.328;15.014;2022-10-31T16:30:50;99275.28;;;9.08;100.00
75895;BME280;64573;50.328;15.014;2022-10-31T16:35:58;99275.47;;;9.07;100.00
75895;BME280;64573;50.328;15.014;2022-10-31T16:38:24;99282.31;;;9.09;100.00
75895;BME280;64573;50.328;15.014;2022-10-31T16:40:50;99285.16;;;9.08;100.00
75895;BME280;64573;50.328;15.014;2022-10-31T16:43:18;99283.81;;;9.04;100.00
75895;BME280;64573;50.328;15.014;2022-10-31T16:45:46;99276.22;;;8.83;100.00
75895;BME280;64573;50.328;15.014;2022-10-31T16:48:14;99272.88;;;8.81;100.00
75895;BME280;64573;50.328;15.014;2022-10-31T16:50:42;99281.53;;;8.75;100.00
75895;BME280;64573;50.328;15.014;2022-10-31T16:53:09;99280.53;;;8.76;100.00
75895;BME280;64573;50.328;15.014;2022-10-31T16:58:14;99270.72;;;8.76;100.00
75895;BME280;64573;50.328;15.014;2022-10-31T17:00:40;99260.66;;;8.70;100.00
75895;BME280;64573;50.328;15.014;2022-10-31T17:03:07;99251.81;;;8.70;100.00
75895;BME280;64573;50.328;15.014;2022-10-31T17:05:33;99256.13;;;8.63;100.00
75895;BME280;64573;50.328;15.014;2022-10-31T17:07:59;99240.72;;;8.56;100.00
75895;BME280;64573;50.328;15.014;2022-10-31T17:10:25;99252.75;;;8.61;100.00
75895;BME280;64573;50.328;15.014;2022-10-31T17:12:51;99250.78;;;8.63;100.00
75895;BME280;64573;50.328;15.014;2022-10-31T17:15:23;99257.28;;;8.60;100.00
75895;BME280;64573;50.328;15.014;2022-10-31T17:17:49;99261.59;;;8.61;100.00
75895;BME280;64573;50.328;15.014;2022-10-31T17:22:45;99260.28;;;8.57;100.00
75895;BME280;64573;50.328;15.014;2022-10-31T17:25:21;99257.78;;;8.55;100.00
75895;BME280;64573;50.328;15.014;2022-10-31T17:27:47;99249.59;;;8.57;100.00
75895;BME280;64573;50.328;15.014;2022-10-31T17:30:13;99255.25;;;8.54;100.00
75895;BME280;64573;50.328;15.014;2022-10-31T17:32:40;99258.41;;;8.49;100.00